sensor_id;sensor_type;location;lat;lon;timestamp;P1;durP1;ratioP1;P2;durP2;ratioP2
53263;SDS011;39153;52.680;6.172;2023-04-12T00:00:24;10.77;;;2.50;;
53263;SDS011;39153;52.680;6.172;2023-04-12T00:02:50;7.55;;;2.05;;
53263;SDS011;39153;52.680;6.172;2023-04-12T00:05:21;9.57;;;2.15;;
53263;SDS011;39153;52.680;6.172;2023-04-12T00:07:47;11.90;;;2.17;;
53263;SDS011;39153;52.680;6.172;2023-04-12T00:10:13;6.40;;;1.65;;
53263;SDS011;39153;52.680;6.172;2023-04-12T00:12:39;10.80;;;2.17;;
53263;SDS011;39153;52.680;6.172;2023-04-12T00:15:05;8.55;;;2.10;;
53263;SDS011;39153;52.680;6.172;2023-04-12T00:17:32;8.70;;;1.80;;
53263;SDS011;39153;52.680;6.172;2023-04-12T00:19:57;8.15;;;2.15;;
53263;SDS011;39153;52.680;6.172;2023-04-12T00:22:23;11.10;;;2.17;;
53263;SDS011;39153;52.680;6.172;2023-04-12T00:24:50;10.05;;;2.28;;
53263;SDS011;39153;52.680;6.172;2023-04-12T00:27:16;12.25;;;2.22;;
53263;SDS011;39153;52.680;6.172;2023-04-12T00:29:42;7.97;;;2.20;;
53263;SDS011;39153;52.680;6.172;2023-04-12T00:32:07;5.90;;;1.80;;
53263;SDS011;39153;52.680;6.172;2023-04-12T00:34:33;10.05;;;2.50;;
53263;SDS011;39153;52.680;6.172;2023-04-12T00:36:59;10.15;;;2.33;;
53263;SDS011;39153;52.680;6.172;2023-04-12T00:39:26;10.10;;;2.55;;
53263;SDS011;39153;52.680;6.172;2023-04-12T00:41:52;9.05;;;2.10;;
53263;SDS011;39153;52.680;6.172;2023-04-12T00:44:17;7.22;;;1.67;;
53263;SDS011;39153;52.680;6.172;2023-04-12T00:46:44;9.75;;;2.00;;
53263;SDS011;39153;52.680;6.172;2023-04-12T00:49:10;9.52;;;2.13;;
53263;SDS011;39153;52.680;6.172;2023-04-12T00:51:36;8.80;;;2.10;;
53263;SDS011;39153;52.680;6.172;2023-04-12T00:54:03;9.38;;;2.28;;
53263;SDS011;39153;52.680;6.172;2023-04-12T00:56:30;6.75;;;1.95;;
53263;SDS011;39153;52.680;6.172;2023-04-12T00:58:56;6.03;;;1.75;;
53263;SDS011;39153;52.680;6.172;2023-04-12T01:01:22;8.35;;;2.20;;
53263;SDS011;39153;52.680;6.172;2023-04-12T01:03:51;7.40;;;2.30;;
53263;SDS011;39153;52.680;6.172;2023-04-12T01:06:32;8.32;;;1.73;;
53263;SDS011;39153;52.680;6.172;2023-04-12T01:09:22;9.70;;;2.30;;
53263;SDS011;39153;52.680;6.172;2023-04-12T01:15:12;7.13;;;2.13;;
53263;SDS011;39153;52.680;6.172;2023-04-12T01:17:45;7.70;;;1.98;;
53263;SDS011;39153;52.680;6.172;2023-04-12T01:20:18;8.07;;;2.25;;
53263;SDS011;39153;52.680;6.172;2023-04-12T01:28:03;8.43;;;2.40;;
53263;SDS011;39153;52.680;6.172;2023-04-12T01:30:31;5.68;;;1.83;;
53263;SDS011;39153;52.680;6.172;2023-04-12T01:32:58;8.25;;;2.20;;
53263;SDS011;39153;52.680;6.172;2023-04-12T01:35:27;6.10;;;1.80;;
53263;SDS011;39153;52.680;6.172;2023-04-12T01:37:55;7.50;;;1.95;;
53263;SDS011;39153;52.680;6.172;2023-04-12T01:40:22;9.25;;;2.50;;
53263;SDS011;39153;52.680;6.172;2023-04-12T01:42:49;11.38;;;2.45;;
53263;SDS011;39153;52.680;6.172;2023-04-12T01:45:14;10.18;;;2.33;;
53263;SDS011;39153;52.680;6.172;2023-04-12T01:47:40;7.80;;;2.13;;
53263;SDS011;39153;52.680;6.172;2023-04-12T01:52:51;6.85;;;2.67;;
53263;SDS011;39153;52.680;6.172;2023-04-12T01:55:23;10.77;;;2.22;;
53263;SDS011;39153;52.680;6.172;2023-04-12T01:57:52;9.82;;;2.10;;
53263;SDS011;39153;52.680;6.172;2023-04-12T02:00:18;8.20;;;2.28;;
53263;SDS011;39153;52.680;6.172;2023-04-12T02:02:44;10.20;;;2.92;;
53263;SDS011;39153;52.680;6.172;2023-04-12T02:05:10;8.65;;;2.10;;
53263;SDS011;39153;52.680;6.172;2023-04-12T02:07:37;8.75;;;2.30;;
53263;SDS011;39153;52.680;6.172;2023-04-12T02:10:05;6.70;;;1.98;;
53263;SDS011;39153;52.680;6.172;2023-04-12T02:12:30;7.63;;;2.60;;
53263;SDS011;39153;52.680;6.172;2023-04-12T02:14:56;7.63;;;2.08;;
53263;SDS011;39153;52.680;6.172;2023-04-12T02:17:22;9.20;;;2.10;;
53263;SDS011;39153;52.680;6.172;2023-04-12T02:19:48;6.90;;;2.15;;
53263;SDS011;39153;52.680;6.172;2023-04-12T02:22:14;6.90;;;2.28;;
53263;SDS011;39153;52.680;6.172;2023-04-12T02:24:40;11.23;;;2.40;;
53263;SDS011;39153;52.680;6.172;2023-04-12T02:27:06;10.02;;;2.15;;
53263;SDS011;39153;52.680;6.172;2023-04-12T02:29:31;9.00;;;2.88;;
53263;SDS011;39153;52.680;6.172;2023-04-12T02:31:57;10.07;;;2.38;;
53263;SDS011;39153;52.680;6.172;2023-04-12T02:34:23;5.53;;;1.90;;
53263;SDS011;39153;52.680;6.172;2023-04-12T02:36:49;6.78;;;1.70;;
53263;SDS011;39153;52.680;6.172;2023-04-12T02:39:15;7.20;;;2.10;;
53263;SDS011;39153;52.680;6.172;2023-04-12T02:41:46;9.60;;;2.17;;
53263;SDS011;39153;52.680;6.172;2023-04-12T02:44:11;7.38;;;2.17;;
53263;SDS011;39153;52.680;6.172;2023-04-12T02:46:37;7.90;;;2.15;;
53263;SDS011;39153;52.680;6.172;2023-04-12T02:49:03;8.52;;;2.50;;
53263;SDS011;39153;52.680;6.172;2023-04-12T02:51:29;7.45;;;2.20;;
53263;SDS011;39153;52.680;6.172;2023-04-12T02:53:55;7.85;;;2.20;;
53263;SDS011;39153;52.680;6.172;2023-04-12T02:56:21;7.30;;;2.50;;
53263;SDS011;39153;52.680;6.172;2023-04-12T02:58:48;7.80;;;2.17;;
53263;SDS011;39153;52.680;6.172;2023-04-12T03:01:14;7.82;;;2.13;;
53263;SDS011;39153;52.680;6.172;2023-04-12T03:03:40;8.23;;;2.90;;
53263;SDS011;39153;52.680;6.172;2023-04-12T03:06:06;12.20;;;2.45;;
53263;SDS011;39153;52.680;6.172;2023-04-12T03:08:33;7.40;;;2.45;;
53263;SDS011;39153;52.680;6.172;2023-04-12T03:11:00;7.78;;;1.88;;
53263;SDS011;39153;52.680;6.172;2023-04-12T03:13:25;6.10;;;1.73;;
53263;SDS011;39153;52.680;6.172;2023-04-12T03:15:53;7.32;;;1.58;;
53263;SDS011;39153;52.680;6.172;2023-04-12T03:18:23;8.98;;;2.08;;
53263;SDS011;39153;52.680;6.172;2023-04-12T03:20:49;7.38;;;1.70;;
53263;SDS011;39153;52.680;6.172;2023-04-12T03:23:16;8.95;;;1.65;;
53263;SDS011;39153;52.680;6.172;2023-04-12T03:25:42;5.05;;;1.40;;
53263;SDS011;39153;52.680;6.172;2023-04-12T03:28:08;5.80;;;1.55;;
53263;SDS011;39153;52.680;6.172;2023-04-12T03:30:34;6.38;;;2.10;;
53263;SDS011;39153;52.680;6.172;2023-04-12T03:33:00;7.32;;;1.80;;
53263;SDS011;39153;52.680;6.172;2023-04-12T03:35:26;8.38;;;1.77;;
53263;SDS011;39153;52.680;6.172;2023-04-12T03:37:51;6.43;;;1.80;;
53263;SDS011;39153;52.680;6.172;2023-04-12T03:40:17;5.38;;;2.00;;
53263;SDS011;39153;52.680;6.172;2023-04-12T03:42:43;8.55;;;1.85;;
53263;SDS011;39153;52.680;6.172;2023-04-12T03:45:08;5.55;;;1.85;;
53263;SDS011;39153;52.680;6.172;2023-04-12T03:47:34;8.85;;;1.70;;
53263;SDS011;39153;52.680;6.172;2023-04-12T03:50:04;9.35;;;2.15;;
53263;SDS011;39153;52.680;6.172;2023-04-12T03:52:31;7.68;;;1.90;;
53263;SDS011;39153;52.680;6.172;2023-04-12T03:54:57;7.95;;;2.20;;
53263;SDS011;39153;52.680;6.172;2023-04-12T03:57:23;6.38;;;1.83;;
53263;SDS011;39153;52.680;6.172;2023-04-12T03:59:48;9.32;;;2.17;;
53263;SDS011;39153;52.680;6.172;2023-04-12T04:02:15;6.32;;;1.83;;
53263;SDS011;39153;52.680;6.172;2023-04-12T04:04:41;5.60;;;2.00;;
53263;SDS011;39153;52.680;6.172;2023-04-12T04:07:07;4.93;;;1.70;;
53263;SDS011;39153;52.680;6.172;2023-04-12T04:09:32;8.77;;;2.28;;
53263;SDS011;39153;52.680;6.172;2023-04-12T04:11:58;5.85;;;2.15;;
53263;SDS011;39153;52.680;6.172;2023-04-12T04:14:25;7.82;;;2.30;;
53263;SDS011;39153;52.680;6.172;2023-04-12T04:16:51;8.10;;;2.13;;
53263;SDS011;39153;52.680;6.172;2023-04-12T04:19:18;7.18;;;2.28;;
53263;SDS011;39153;52.680;6.172;2023-04-12T04:21:43;8.38;;;2.45;;
53263;SDS011;39153;52.680;6.172;2023-04-12T04:24:09;6.35;;;2.75;;
53263;SDS011;39153;52.680;6.172;2023-04-12T04:26:38;8.30;;;3.30;;
53263;SDS011;39153;52.680;6.172;2023-04-12T04:29:04;9.25;;;3.35;;
53263;SDS011;39153;52.680;6.172;2023-04-12T04:31:30;8.18;;;3.47;;
53263;SDS011;39153;52.680;6.172;2023-04-12T04:33:58;10.60;;;3.92;;
53263;SDS011;39153;52.680;6.172;2023-04-12T04:36:25;13.05;;;4.80;;
53263;SDS011;39153;52.680;6.172;2023-04-12T04:38:51;10.48;;;4.45;;
53263;SDS011;39153;52.680;6.172;2023-04-12T04:41:17;12.45;;;5.32;;
53263;SDS011;39153;52.680;6.172;2023-04-12T04:43:46;12.90;;;5.78;;
53263;SDS011;39153;52.680;6.172;2023-04-12T04:46:12;14.55;;;7.20;;
53263;SDS011;39153;52.680;6.172;2023-04-12T04:48:38;13.55;;;7.28;;
53263;SDS011;39153;52.680;6.172;2023-04-12T04:51:05;12.65;;;7.22;;
53263;SDS011;39153;52.680;6.172;2023-04-12T04:53:31;17.60;;;9.88;;
53263;SDS011;39153;52.680;6.172;2023-04-12T04:55:57;16.70;;;9.98;;
53263;SDS011;39153;52.680;6.172;2023-04-12T04:58:23;19.33;;;9.75;;
53263;SDS011;39153;52.680;6.172;2023-04-12T05:00:49;19.40;;;10.25;;
53263;SDS011;39153;52.680;6.172;2023-04-12T05:03:15;18.10;;;9.68;;
53263;SDS011;39153;52.680;6.172;2023-04-12T05:05:42;23.17;;;11.20;;
53263;SDS011;39153;52.680;6.172;2023-04-12T05:08:07;16.83;;;10.05;;
53263;SDS011;39153;52.680;6.172;2023-04-12T05:10:33;18.25;;;10.43;;
53263;SDS011;39153;52.680;6.172;2023-04-12T05:12:59;19.95;;;10.65;;
53263;SDS011;39153;52.680;6.172;2023-04-12T05:15:25;16.77;;;9.55;;
53263;SDS011;39153;52.680;6.172;2023-04-12T05:17:50;18.40;;;9.18;;
53263;SDS011;39153;52.680;6.172;2023-04-12T05:20:16;15.20;;;9.10;;
53263;SDS011;39153;52.680;6.172;2023-04-12T05:22:42;16.52;;;8.45;;
53263;SDS011;39153;52.680;6.172;2023-04-12T05:25:08;17.73;;;8.73;;
53263;SDS011;39153;52.680;6.172;2023-04-12T05:27:34;19.55;;;8.75;;
53263;SDS011;39153;52.680;6.172;2023-04-12T05:30:00;22.73;;;9.15;;
53263;SDS011;39153;52.680;6.172;2023-04-12T05:32:25;16.75;;;7.50;;
53263;SDS011;39153;52.680;6.172;2023-04-12T05:34:51;18.77;;;7.45;;
53263;SDS011;39153;52.680;6.172;2023-04-12T05:37:17;16.67;;;7.57;;
53263;SDS011;39153;52.680;6.172;2023-04-12T05:39:43;16.05;;;6.88;;
53263;SDS011;39153;52.680;6.172;2023-04-12T05:42:08;16.45;;;7.13;;
53263;SDS011;39153;52.680;6.172;2023-04-12T05:44:34;15.77;;;7.15;;
53263;SDS011;39153;52.680;6.172;2023-04-12T05:47:01;15.73;;;6.63;;
53263;SDS011;39153;52.680;6.172;2023-04-12T05:49:28;16.08;;;7.45;;
53263;SDS011;39153;52.680;6.172;2023-04-12T05:51:55;15.43;;;6.90;;
53263;SDS011;39153;52.680;6.172;2023-04-12T05:54:21;16.20;;;6.70;;
53263;SDS011;39153;52.680;6.172;2023-04-12T05:56:46;16.50;;;6.95;;
53263;SDS011;39153;52.680;6.172;2023-04-12T05:59:12;13.05;;;6.40;;
53263;SDS011;39153;52.680;6.172;2023-04-12T06:01:38;16.50;;;7.35;;
53263;SDS011;39153;52.680;6.172;2023-04-12T06:04:06;11.45;;;6.78;;
53263;SDS011;39153;52.680;6.172;2023-04-12T06:06:32;14.13;;;7.35;;
53263;SDS011;39153;52.680;6.172;2023-04-12T06:08:58;14.38;;;10.30;;
53263;SDS011;39153;52.680;6.172;2023-04-12T06:11:27;15.25;;;7.57;;
53263;SDS011;39153;52.680;6.172;2023-04-12T06:13:53;14.77;;;7.68;;
53263;SDS011;39153;52.680;6.172;2023-04-12T06:16:19;12.95;;;7.00;;
53263;SDS011;39153;52.680;6.172;2023-04-12T06:18:45;14.85;;;7.88;;
53263;SDS011;39153;52.680;6.172;2023-04-12T06:21:11;12.32;;;7.97;;
53263;SDS011;39153;52.680;6.172;2023-04-12T06:23:37;14.15;;;7.57;;
53263;SDS011;39153;52.680;6.172;2023-04-12T06:26:02;15.00;;;7.65;;
53263;SDS011;39153;52.680;6.172;2023-04-12T06:28:28;14.73;;;7.93;;
53263;SDS011;39153;52.680;6.172;2023-04-12T06:30:54;10.90;;;7.68;;
53263;SDS011;39153;52.680;6.172;2023-04-12T06:33:20;14.98;;;10.85;;
53263;SDS011;39153;52.680;6.172;2023-04-12T06:35:48;12.20;;;7.38;;
53263;SDS011;39153;52.680;6.172;2023-04-12T06:38:15;12.90;;;11.15;;
53263;SDS011;39153;52.680;6.172;2023-04-12T06:40:42;17.13;;;8.25;;
53263;SDS011;39153;52.680;6.172;2023-04-12T06:43:07;15.70;;;8.55;;
53263;SDS011;39153;52.680;6.172;2023-04-12T06:45:33;20.23;;;9.13;;
53263;SDS011;39153;52.680;6.172;2023-04-12T06:47:59;14.10;;;8.75;;
53263;SDS011;39153;52.680;6.172;2023-04-12T06:50:25;15.65;;;9.07;;
53263;SDS011;39153;52.680;6.172;2023-04-12T06:52:50;15.75;;;9.45;;
53263;SDS011;39153;52.680;6.172;2023-04-12T06:55:16;15.07;;;9.00;;
53263;SDS011;39153;52.680;6.172;2023-04-12T06:57:42;13.85;;;9.57;;
53263;SDS011;39153;52.680;6.172;2023-04-12T07:00:11;14.10;;;9.23;;
53263;SDS011;39153;52.680;6.172;2023-04-12T07:02:37;15.02;;;11.88;;
53263;SDS011;39153;52.680;6.172;2023-04-12T07:05:06;14.23;;;9.45;;
53263;SDS011;39153;52.680;6.172;2023-04-12T07:07:32;15.52;;;10.27;;
53263;SDS011;39153;52.680;6.172;2023-04-12T07:09:57;16.15;;;10.48;;
53263;SDS011;39153;52.680;6.172;2023-04-12T07:12:24;15.05;;;9.95;;
53263;SDS011;39153;52.680;6.172;2023-04-12T07:14:50;20.17;;;11.10;;
53263;SDS011;39153;52.680;6.172;2023-04-12T07:17:15;17.30;;;9.45;;
53263;SDS011;39153;52.680;6.172;2023-04-12T07:19:41;14.88;;;9.90;;
53263;SDS011;39153;52.680;6.172;2023-04-12T07:22:08;15.52;;;10.15;;
53263;SDS011;39153;52.680;6.172;2023-04-12T07:24:34;15.50;;;9.90;;
53263;SDS011;39153;52.680;6.172;2023-04-12T07:27:00;15.55;;;10.50;;
53263;SDS011;39153;52.680;6.172;2023-04-12T07:29:25;15.13;;;10.13;;
53263;SDS011;39153;52.680;6.172;2023-04-12T07:31:51;14.75;;;9.80;;
53263;SDS011;39153;52.680;6.172;2023-04-12T07:34:17;17.70;;;10.40;;
53263;SDS011;39153;52.680;6.172;2023-04-12T07:36:42;17.98;;;11.25;;
53263;SDS011;39153;52.680;6.172;2023-04-12T07:39:09;14.05;;;10.40;;
53263;SDS011;39153;52.680;6.172;2023-04-12T07:41:38;13.85;;;10.20;;
53263;SDS011;39153;52.680;6.172;2023-04-12T07:44:06;16.05;;;11.35;;
53263;SDS011;39153;52.680;6.172;2023-04-12T07:46:32;14.52;;;11.20;;
53263;SDS011;39153;52.680;6.172;2023-04-12T07:48:57;14.20;;;10.13;;
53263;SDS011;39153;52.680;6.172;2023-04-12T07:51:23;14.93;;;10.45;;
53263;SDS011;39153;52.680;6.172;2023-04-12T07:53:49;13.38;;;10.80;;
53263;SDS011;39153;52.680;6.172;2023-04-12T07:56:15;15.93;;;11.02;;
53263;SDS011;39153;52.680;6.172;2023-04-12T07:58:41;16.23;;;12.07;;
53263;SDS011;39153;52.680;6.172;2023-04-12T08:01:07;14.52;;;10.38;;
53263;SDS011;39153;52.680;6.172;2023-04-12T08:03:33;15.25;;;10.45;;
53263;SDS011;39153;52.680;6.172;2023-04-12T08:05:58;14.75;;;10.35;;
53263;SDS011;39153;52.680;6.172;2023-04-12T08:08:24;14.88;;;10.18;;
53263;SDS011;39153;52.680;6.172;2023-04-12T08:10:50;12.93;;;10.13;;
53263;SDS011;39153;52.680;6.172;2023-04-12T08:13:16;12.40;;;9.25;;
53263;SDS011;39153;52.680;6.172;2023-04-12T08:15:42;12.80;;;9.65;;
53263;SDS011;39153;52.680;6.172;2023-04-12T08:18:09;14.13;;;10.15;;
53263;SDS011;39153;52.680;6.172;2023-04-12T08:20:35;13.15;;;9.77;;
53263;SDS011;39153;52.680;6.172;2023-04-12T08:23:01;12.48;;;9.20;;
53263;SDS011;39153;52.680;6.172;2023-04-12T08:25:27;11.45;;;8.63;;
53263;SDS011;39153;52.680;6.172;2023-04-12T08:27:52;13.05;;;8.10;;
53263;SDS011;39153;52.680;6.172;2023-04-12T08:30:18;13.68;;;8.07;;
53263;SDS011;39153;52.680;6.172;2023-04-12T08:32:44;11.38;;;7.63;;
53263;SDS011;39153;52.680;6.172;2023-04-12T08:35:10;11.35;;;7.20;;
53263;SDS011;39153;52.680;6.172;2023-04-12T08:37:36;14.18;;;7.53;;
53263;SDS011;39153;52.680;6.172;2023-04-12T08:40:03;9.70;;;5.68;;
53263;SDS011;39153;52.680;6.172;2023-04-12T08:42:31;8.88;;;5.82;;
53263;SDS011;39153;52.680;6.172;2023-04-12T08:44:58;9.50;;;5.80;;
53263;SDS011;39153;52.680;6.172;2023-04-12T08:47:29;10.25;;;6.47;;
53263;SDS011;39153;52.680;6.172;2023-04-12T08:49:56;12.02;;;5.82;;
53263;SDS011;39153;52.680;6.172;2023-04-12T08:52:22;7.35;;;5.20;;
53263;SDS011;39153;52.680;6.172;2023-04-12T08:54:48;9.27;;;6.97;;
53263;SDS011;39153;52.680;6.172;2023-04-12T08:57:13;10.57;;;5.72;;
53263;SDS011;39153;52.680;6.172;2023-04-12T08:59:42;9.38;;;5.72;;
53263;SDS011;39153;52.680;6.172;2023-04-12T09:02:12;10.80;;;6.05;;
53263;SDS011;39153;52.680;6.172;2023-04-12T09:04:50;8.88;;;5.53;;
53263;SDS011;39153;52.680;6.172;2023-04-12T09:07:17;11.40;;;5.32;;
53263;SDS011;39153;52.680;6.172;2023-04-12T09:09:44;12.07;;;6.05;;
53263;SDS011;39153;52.680;6.172;2023-04-12T09:12:11;6.72;;;5.10;;
53263;SDS011;39153;52.680;6.172;2023-04-12T09:14:38;9.00;;;4.90;;
53263;SDS011;39153;52.680;6.172;2023-04-12T09:17:17;12.82;;;4.90;;
53263;SDS011;39153;52.680;6.172;2023-04-12T09:19:47;11.75;;;5.22;;
53263;SDS011;39153;52.680;6.172;2023-04-12T09:22:13;8.88;;;5.03;;
53263;SDS011;39153;52.680;6.172;2023-04-12T09:24:49;12.35;;;5.35;;
53263;SDS011;39153;52.680;6.172;2023-04-12T09:27:17;14.52;;;5.47;;
53263;SDS011;39153;52.680;6.172;2023-04-12T09:29:46;9.57;;;5.05;;
53263;SDS011;39153;52.680;6.172;2023-04-12T09:32:23;10.90;;;5.32;;
53263;SDS011;39153;52.680;6.172;2023-04-12T09:34:56;12.70;;;5.38;;
53263;SDS011;39153;52.680;6.172;2023-04-12T09:37:23;12.43;;;5.63;;
53263;SDS011;39153;52.680;6.172;2023-04-12T09:42:49;15.27;;;6.38;;
53263;SDS011;39153;52.680;6.172;2023-04-12T09:45:19;13.95;;;5.85;;
53263;SDS011;39153;52.680;6.172;2023-04-12T09:47:49;11.27;;;4.88;;
53263;SDS011;39153;52.680;6.172;2023-04-12T09:50:20;12.02;;;4.93;;
53263;SDS011;39153;52.680;6.172;2023-04-12T09:52:47;15.50;;;6.93;;
53263;SDS011;39153;52.680;6.172;2023-04-12T09:55:12;10.18;;;5.20;;
53263;SDS011;39153;52.680;6.172;2023-04-12T09:57:39;13.23;;;5.78;;
53263;SDS011;39153;52.680;6.172;2023-04-12T10:00:08;10.95;;;4.32;;
53263;SDS011;39153;52.680;6.172;2023-04-12T10:02:42;19.20;;;4.75;;
53263;SDS011;39153;52.680;6.172;2023-04-12T10:05:13;14.40;;;4.18;;
53263;SDS011;39153;52.680;6.172;2023-04-12T10:07:41;13.70;;;3.80;;
53263;SDS011;39153;52.680;6.172;2023-04-12T10:10:10;13.27;;;4.38;;
53263;SDS011;39153;52.680;6.172;2023-04-12T10:12:41;13.38;;;3.65;;
53263;SDS011;39153;52.680;6.172;2023-04-12T10:15:08;16.13;;;3.25;;
53263;SDS011;39153;52.680;6.172;2023-04-12T10:17:44;18.85;;;3.85;;
53263;SDS011;39153;52.680;6.172;2023-04-12T10:20:15;13.27;;;2.88;;
53263;SDS011;39153;52.680;6.172;2023-04-12T10:22:42;19.48;;;3.05;;
53263;SDS011;39153;52.680;6.172;2023-04-12T10:25:19;13.25;;;2.53;;
53263;SDS011;39153;52.680;6.172;2023-04-12T10:35:26;8.35;;;2.60;;
53263;SDS011;39153;52.680;6.172;2023-04-12T10:37:59;12.30;;;2.95;;
53263;SDS011;39153;52.680;6.172;2023-04-12T10:40:26;14.45;;;2.65;;
53263;SDS011;39153;52.680;6.172;2023-04-12T10:45:46;11.02;;;2.85;;
53263;SDS011;39153;52.680;6.172;2023-04-12T10:51:17;16.30;;;3.33;;
53263;SDS011;39153;52.680;6.172;2023-04-12T10:56:40;14.57;;;3.47;;
53263;SDS011;39153;52.680;6.172;2023-04-12T10:59:07;12.68;;;3.00;;
53263;SDS011;39153;52.680;6.172;2023-04-12T11:01:34;13.48;;;2.88;;
53263;SDS011;39153;52.680;6.172;2023-04-12T11:04:07;13.43;;;2.67;;
53263;SDS011;39153;52.680;6.172;2023-04-12T11:06:59;15.95;;;2.83;;
53263;SDS011;39153;52.680;6.172;2023-04-12T11:14:30;15.55;;;2.80;;
53263;SDS011;39153;52.680;6.172;2023-04-12T11:19:35;17.05;;;3.00;;
53263;SDS011;39153;52.680;6.172;2023-04-12T11:22:08;15.25;;;3.10;;
53263;SDS011;39153;52.680;6.172;2023-04-12T11:27:04;11.55;;;2.40;;
53263;SDS011;39153;52.680;6.172;2023-04-12T11:29:30;12.60;;;2.60;;
53263;SDS011;39153;52.680;6.172;2023-04-12T11:31:57;16.55;;;2.72;;
53263;SDS011;39153;52.680;6.172;2023-04-12T11:34:23;15.68;;;2.72;;
53263;SDS011;39153;52.680;6.172;2023-04-12T11:36:52;12.15;;;2.30;;
53263;SDS011;39153;52.680;6.172;2023-04-12T11:39:19;12.40;;;2.10;;
53263;SDS011;39153;52.680;6.172;2023-04-12T11:41:46;9.98;;;2.30;;
53263;SDS011;39153;52.680;6.172;2023-04-12T11:44:13;14.50;;;3.53;;
53263;SDS011;39153;52.680;6.172;2023-04-12T11:46:43;17.70;;;2.67;;
53263;SDS011;39153;52.680;6.172;2023-04-12T11:49:15;10.90;;;2.40;;
53263;SDS011;39153;52.680;6.172;2023-04-12T11:51:42;11.40;;;2.38;;
53263;SDS011;39153;52.680;6.172;2023-04-12T11:54:09;20.50;;;3.35;;
53263;SDS011;39153;52.680;6.172;2023-04-12T11:56:35;13.73;;;2.83;;
53263;SDS011;39153;52.680;6.172;2023-04-12T11:59:02;19.40;;;3.03;;
53263;SDS011;39153;52.680;6.172;2023-04-12T12:01:28;13.73;;;3.05;;
53263;SDS011;39153;52.680;6.172;2023-04-12T12:03:56;12.95;;;2.42;;
53263;SDS011;39153;52.680;6.172;2023-04-12T12:06:25;16.30;;;3.00;;
53263;SDS011;39153;52.680;6.172;2023-04-12T12:08:51;14.60;;;3.60;;
53263;SDS011;39153;52.680;6.172;2023-04-12T12:11:21;15.63;;;2.70;;
53263;SDS011;39153;52.680;6.172;2023-04-12T12:13:52;13.40;;;3.75;;
53263;SDS011;39153;52.680;6.172;2023-04-12T12:16:28;17.33;;;2.85;;
53263;SDS011;39153;52.680;6.172;2023-04-12T12:18:54;17.45;;;2.58;;
53263;SDS011;39153;52.680;6.172;2023-04-12T12:21:21;15.95;;;3.08;;
53263;SDS011;39153;52.680;6.172;2023-04-12T12:23:47;12.75;;;3.15;;
53263;SDS011;39153;52.680;6.172;2023-04-12T12:28:50;10.32;;;2.30;;
53263;SDS011;39153;52.680;6.172;2023-04-12T12:31:21;10.55;;;2.40;;
53263;SDS011;39153;52.680;6.172;2023-04-12T12:33:55;10.25;;;2.17;;
53263;SDS011;39153;52.680;6.172;2023-04-12T12:36:32;17.48;;;3.30;;
53263;SDS011;39153;52.680;6.172;2023-04-12T12:39:08;11.50;;;2.55;;
53263;SDS011;39153;52.680;6.172;2023-04-12T12:41:35;15.07;;;2.72;;
53263;SDS011;39153;52.680;6.172;2023-04-12T12:44:01;10.90;;;1.85;;
53263;SDS011;39153;52.680;6.172;2023-04-12T12:46:27;15.13;;;2.53;;
53263;SDS011;39153;52.680;6.172;2023-04-12T12:48:53;17.00;;;2.00;;
53263;SDS011;39153;52.680;6.172;2023-04-12T12:51:19;11.38;;;1.95;;
53263;SDS011;39153;52.680;6.172;2023-04-12T12:53:45;15.68;;;2.55;;
53263;SDS011;39153;52.680;6.172;2023-04-12T12:56:12;12.30;;;2.25;;
53263;SDS011;39153;52.680;6.172;2023-04-12T12:58:41;13.63;;;2.30;;
53263;SDS011;39153;52.680;6.172;2023-04-12T13:01:07;12.60;;;2.53;;
53263;SDS011;39153;52.680;6.172;2023-04-12T13:03:33;10.82;;;1.95;;
53263;SDS011;39153;52.680;6.172;2023-04-12T13:05:59;12.82;;;3.00;;
53263;SDS011;39153;52.680;6.172;2023-04-12T13:08:25;14.57;;;2.15;;
53263;SDS011;39153;52.680;6.172;2023-04-12T13:10:51;11.77;;;2.75;;
53263;SDS011;39153;52.680;6.172;2023-04-12T13:13:19;16.75;;;2.33;;
53263;SDS011;39153;52.680;6.172;2023-04-12T13:15:45;12.52;;;2.78;;
53263;SDS011;39153;52.680;6.172;2023-04-12T13:18:12;14.48;;;2.33;;
53263;SDS011;39153;52.680;6.172;2023-04-12T13:20:41;11.18;;;2.72;;
53263;SDS011;39153;52.680;6.172;2023-04-12T13:23:08;14.02;;;2.28;;
53263;SDS011;39153;52.680;6.172;2023-04-12T13:25:34;19.52;;;3.17;;
53263;SDS011;39153;52.680;6.172;2023-04-12T13:27:59;10.90;;;2.15;;
53263;SDS011;39153;52.680;6.172;2023-04-12T13:30:25;8.80;;;1.63;;
53263;SDS011;39153;52.680;6.172;2023-04-12T13:32:52;8.50;;;1.67;;
53263;SDS011;39153;52.680;6.172;2023-04-12T13:35:18;5.50;;;1.33;;
53263;SDS011;39153;52.680;6.172;2023-04-12T13:37:43;7.63;;;1.52;;
53263;SDS011;39153;52.680;6.172;2023-04-12T13:40:09;9.68;;;1.42;;
53263;SDS011;39153;52.680;6.172;2023-04-12T13:42:35;6.75;;;1.38;;
53263;SDS011;39153;52.680;6.172;2023-04-12T13:45:01;11.43;;;1.58;;
53263;SDS011;39153;52.680;6.172;2023-04-12T13:47:28;11.32;;;1.88;;
53263;SDS011;39153;52.680;6.172;2023-04-12T13:49:54;5.50;;;1.05;;
53263;SDS011;39153;52.680;6.172;2023-04-12T13:52:19;5.38;;;1.00;;
53263;SDS011;39153;52.680;6.172;2023-04-12T13:54:45;7.13;;;1.42;;
53263;SDS011;39153;52.680;6.172;2023-04-12T13:57:11;6.25;;;1.10;;
53263;SDS011;39153;52.680;6.172;2023-04-12T13:59:36;9.75;;;1.88;;
53263;SDS011;39153;52.680;6.172;2023-04-12T14:02:02;10.88;;;1.65;;
53263;SDS011;39153;52.680;6.172;2023-04-12T14:04:29;9.77;;;2.05;;
53263;SDS011;39153;52.680;6.172;2023-04-12T14:06:56;10.85;;;1.73;;
53263;SDS011;39153;52.680;6.172;2023-04-12T14:09:26;11.32;;;1.85;;
53263;SDS011;39153;52.680;6.172;2023-04-12T14:11:53;7.78;;;1.58;;
53263;SDS011;39153;52.680;6.172;2023-04-12T14:14:20;9.20;;;1.60;;
53263;SDS011;39153;52.680;6.172;2023-04-12T14:16:50;8.98;;;1.90;;
53263;SDS011;39153;52.680;6.172;2023-04-12T14:19:20;8.30;;;1.85;;
53263;SDS011;39153;52.680;6.172;2023-04-12T14:21:46;8.32;;;1.75;;
53263;SDS011;39153;52.680;6.172;2023-04-12T14:24:13;8.88;;;1.52;;
53263;SDS011;39153;52.680;6.172;2023-04-12T14:26:42;8.05;;;1.80;;
53263;SDS011;39153;52.680;6.172;2023-04-12T14:29:07;10.05;;;1.90;;
53263;SDS011;39153;52.680;6.172;2023-04-12T14:31:34;9.55;;;1.73;;
53263;SDS011;39153;52.680;6.172;2023-04-12T14:34:01;10.35;;;1.92;;
53263;SDS011;39153;52.680;6.172;2023-04-12T14:36:27;11.38;;;2.53;;
53263;SDS011;39153;52.680;6.172;2023-04-12T14:38:53;10.23;;;1.88;;
53263;SDS011;39153;52.680;6.172;2023-04-12T14:41:19;11.20;;;1.88;;
53263;SDS011;39153;52.680;6.172;2023-04-12T14:43:45;9.05;;;2.30;;
53263;SDS011;39153;52.680;6.172;2023-04-12T14:46:11;10.25;;;2.00;;
53263;SDS011;39153;52.680;6.172;2023-04-12T14:48:37;10.00;;;1.63;;
53263;SDS011;39153;52.680;6.172;2023-04-12T14:51:02;7.68;;;2.17;;
53263;SDS011;39153;52.680;6.172;2023-04-12T14:53:28;9.18;;;2.00;;
53263;SDS011;39153;52.680;6.172;2023-04-12T14:55:55;7.90;;;2.17;;
53263;SDS011;39153;52.680;6.172;2023-04-12T14:58:20;10.73;;;2.20;;
53263;SDS011;39153;52.680;6.172;2023-04-12T15:00:46;11.77;;;2.33;;
53263;SDS011;39153;52.680;6.172;2023-04-12T15:03:12;11.63;;;2.63;;
53263;SDS011;39153;52.680;6.172;2023-04-12T15:05:39;9.63;;;2.38;;
53263;SDS011;39153;52.680;6.172;2023-04-12T15:08:04;13.07;;;2.85;;
53263;SDS011;39153;52.680;6.172;2023-04-12T15:10:30;15.40;;;2.70;;
53263;SDS011;39153;52.680;6.172;2023-04-12T15:12:56;9.68;;;2.30;;
53263;SDS011;39153;52.680;6.172;2023-04-12T15:15:25;12.80;;;3.28;;
53263;SDS011;39153;52.680;6.172;2023-04-12T15:17:51;10.93;;;2.33;;
53263;SDS011;39153;52.680;6.172;2023-04-12T15:20:17;13.18;;;3.28;;